sensor_id;sensor_type;location;lat;lon;timestamp;pressure;altitude;pressure_sealevel;temperature;humidity
49973;BME280;71845;49.798;10.968;2023-12-04T00:02:14;98595.16;;;-5.57;68.89
49973;BME280;71845;49.798;10.968;2023-12-04T00:04:40;98583.16;;;-5.47;68.95
49973;BME280;71845;49.798;10.968;2023-12-04T00:07:07;98580.56;;;-5.47;68.95
49973;BME280;71845;49.798;10.968;2023-12-04T00:09:36;98574.50;;;-5.55;69.15
49973;BME280;71845;49.798;10.968;2023-12-04T00:12:04;98578.84;;;-5.49;69.25
49973;BME280;71845;49.798;10.968;2023-12-04T00:14:30;98575.34;;;-5.58;69.59
49973;BME280;71845;49.798;10.968;2023-12-04T00:16:58;98569.34;;;-5.55;69.14
49973;BME280;71845;49.798;10.968;2023-12-04T00:19:26;98570.22;;;-5.53;69.10
49973;BME280;71845;49.798;10.968;2023-12-04T00:21:53;98565.94;;;-5.48;68.90
49973;BME280;71845;49.798;10.968;2023-12-04T00:24:20;98566.78;;;-5.50;68.53
49973;BME280;71845;49.798;10.968;2023-12-04T00:26:50;98558.19;;;-5.46;69.19
49973;BME280;71845;49.798;10.968;2023-12-04T00:29:17;98552.16;;;-5.44;68.73
49973;BME280;71845;49.798;10.968;2023-12-04T00:31:45;98543.50;;;-5.53;68.55
49973;BME280;71845;49.798;10.968;2023-12-04T00:34:12;98537.50;;;-5.48;68.80
49973;BME280;71845;49.798;10.968;2023-12-04T00:36:39;98526.22;;;-5.65;69.41
49973;BME280;71845;49.798;10.968;2023-12-04T00:39:06;98521.91;;;-5.70;69.47
49973;BME280;71845;49.798;10.968;2023-12-04T00:41:33;98523.66;;;-5.64;68.99
49973;BME280;71845;49.798;10.968;2023-12-04T00:44:00;98517.56;;;-5.77;69.79
49973;BME280;71845;49.798;10.968;2023-12-04T00:46:27;98512.41;;;-5.78;70.31
49973;BME280;71845;49.798;10.968;2023-12-04T00:48:54;98507.22;;;-5.77;69.71
49973;BME280;71845;49.798;10.968;2023-12-04T00:51:21;98509.81;;;-5.77;69.75
49973;BME280;71845;49.798;10.968;2023-12-04T00:53:48;98503.84;;;-5.73;69.95
49973;BME280;71845;49.798;10.968;2023-12-04T00:56:18;98506.44;;;-5.63;69.72
49973;BME280;71845;49.798;10.968;2023-12-04T00:58:45;98503.84;;;-5.63;69.12
49973;BME280;71845;49.798;10.968;2023-12-04T01:01:13;98501.31;;;-5.56;68.78
49973;BME280;71845;49.798;10.968;2023-12-04T01:03:41;98505.59;;;-5.58;69.56
49973;BME280;71845;49.798;10.968;2023-12-04T01:06:08;98490.03;;;-5.70;69.05
49973;BME280;71845;49.798;10.968;2023-12-04T01:08:34;98496.97;;;-5.66;69.19
49973;BME280;71845;49.798;10.968;2023-12-04T01:11:01;98502.13;;;-5.64;69.27
49973;BME280;71845;49.798;10.968;2023-12-04T01:13:26;98490.91;;;-5.74;70.14
49973;BME280;71845;49.798;10.968;2023-12-04T01:15:53;98494.38;;;-5.66;69.89
49973;BME280;71845;49.798;10.968;2023-12-04T01:18:24;98484.88;;;-5.70;69.83
49973;BME280;71845;49.798;10.968;2023-12-04T01:20:54;98481.53;;;-5.55;69.48
49973;BME280;71845;49.798;10.968;2023-12-04T01:23:22;98484.97;;;-5.50;68.83
49973;BME280;71845;49.798;10.968;2023-12-04T01:25:48;98473.81;;;-5.47;68.77
49973;BME280;71845;49.798;10.968;2023-12-04T01:28:15;98470.28;;;-5.62;68.13
49973;BME280;71845;49.798;10.968;2023-12-04T01:30:42;98459.19;;;-5.48;68.77
49973;BME280;71845;49.798;10.968;2023-12-04T01:33:08;98450.47;;;-5.61;68.12
49973;BME280;71845;49.798;10.968;2023-12-04T01:35:37;98452.28;;;-5.49;68.04
49973;BME280;71845;49.798;10.968;2023-12-04T01:38:04;98444.53;;;-5.49;68.00
49973;BME280;71845;49.798;10.968;2023-12-04T01:40:33;98447.13;;;-5.45;67.50
49973;BME280;71845;49.798;10.968;2023-12-04T01:43:02;98449.69;;;-5.54;68.12
49973;BME280;71845;49.798;10.968;2023-12-04T01:45:28;98449.66;;;-5.57;67.95
49973;BME280;71845;49.798;10.968;2023-12-04T01:47:54;98440.25;;;-5.47;67.87
49973;BME280;71845;49.798;10.968;2023-12-04T01:50:21;98443.66;;;-5.47;67.95
49973;BME280;71845;49.798;10.968;2023-12-04T01:52:50;98447.97;;;-5.50;68.09
49973;BME280;71845;49.798;10.968;2023-12-04T01:55:18;98441.88;;;-5.63;68.59
49973;BME280;71845;49.798;10.968;2023-12-04T01:57:45;98435.81;;;-5.70;68.16
49973;BME280;71845;49.798;10.968;2023-12-04T02:00:14;98441.81;;;-5.79;69.05
49973;BME280;71845;49.798;10.968;2023-12-04T02:02:41;98443.59;;;-5.75;68.61
49973;BME280;71845;49.798;10.968;2023-12-04T02:05:09;98440.13;;;-5.67;68.49
49973;BME280;71845;49.798;10.968;2023-12-04T02:07:41;98445.28;;;-5.71;69.11
49973;BME280;71845;49.798;10.968;2023-12-04T02:10:13;98440.97;;;-5.70;69.18
49973;BME280;71845;49.798;10.968;2023-12-04T02:12:40;98442.75;;;-5.66;68.31
49973;BME280;71845;49.798;10.968;2023-12-04T02:15:08;98445.25;;;-5.83;68.56
49973;BME280;71845;49.798;10.968;2023-12-04T02:17:35;98443.56;;;-5.79;69.50
49973;BME280;71845;49.798;10.968;2023-12-04T02:20:03;98443.50;;;-5.90;68.81
49973;BME280;71845;49.798;10.968;2023-12-04T02:22:30;98441.84;;;-5.80;68.84
49973;BME280;71845;49.798;10.968;2023-12-04T02:24:59;98454.75;;;-5.68;69.32
49973;BME280;71845;49.798;10.968;2023-12-04T02:27:31;98439.16;;;-5.94;69.41
49973;BME280;71845;49.798;10.968;2023-12-04T02:30:01;98441.84;;;-5.74;68.84
49973;BME280;71845;49.798;10.968;2023-12-04T02:32:31;98446.13;;;-5.70;68.71
49973;BME280;71845;49.798;10.968;2023-12-04T02:34:59;98441.84;;;-5.66;68.60
49973;BME280;71845;49.798;10.968;2023-12-04T02:37:29;98450.44;;;-5.71;68.03
49973;BME280;71845;49.798;10.968;2023-12-04T02:39:56;98447.03;;;-5.63;68.37
49973;BME280;71845;49.798;10.968;2023-12-04T02:42:25;98439.25;;;-5.70;67.54
49973;BME280;71845;49.798;10.968;2023-12-04T02:44:53;98442.75;;;-5.63;68.15
49973;BME280;71845;49.798;10.968;2023-12-04T02:47:20;98440.13;;;-5.67;68.15
49973;BME280;71845;49.798;10.968;2023-12-04T02:49:47;98441.88;;;-5.71;67.82
49973;BME280;71845;49.798;10.968;2023-12-04T02:52:13;98437.53;;;-5.78;68.27
49973;BME280;71845;49.798;10.968;2023-12-04T02:54:40;98429.75;;;-5.83;68.12
49973;BME280;71845;49.798;10.968;2023-12-04T02:57:06;98429.66;;;-5.99;68.48
49973;BME280;71845;49.798;10.968;2023-12-04T02:59:37;98424.63;;;-5.81;68.01
49973;BME280;71845;49.798;10.968;2023-12-04T03:02:03;98427.97;;;-5.93;68.41
49973;BME280;71845;49.798;10.968;2023-12-04T03:04:31;98424.59;;;-5.83;67.88
49973;BME280;71845;49.798;10.968;2023-12-04T03:06:58;98420.97;;;-6.10;68.27
49973;BME280;71845;49.798;10.968;2023-12-04T03:09:25;98420.22;;;-5.95;67.81
49973;BME280;71845;49.798;10.968;2023-12-04T03:11:51;98419.34;;;-6.02;67.56
49973;BME280;71845;49.798;10.968;2023-12-04T03:14:18;98412.38;;;-6.09;67.60
49973;BME280;71845;49.798;10.968;2023-12-04T03:16:49;98409.66;;;-6.31;68.34
49973;BME280;71845;49.798;10.968;2023-12-04T03:19:17;98403.63;;;-6.34;68.65
49973;BME280;71845;49.798;10.968;2023-12-04T03:21:43;98393.34;;;-6.30;67.99
49973;BME280;71845;49.798;10.968;2023-12-04T03:24:12;98391.47;;;-6.52;68.59
49973;BME280;71845;49.798;10.968;2023-12-04T03:26:39;98382.06;;;-6.44;68.29
49973;BME280;71845;49.798;10.968;2023-12-04T03:29:06;98383.03;;;-6.28;67.88
49973;BME280;71845;49.798;10.968;2023-12-04T03:31:33;98378.72;;;-6.28;67.28
49973;BME280;71845;49.798;10.968;2023-12-04T03:34:03;98371.78;;;-6.43;67.68
49973;BME280;71845;49.798;10.968;2023-12-04T03:36:29;98383.88;;;-6.31;67.54
49973;BME280;71845;49.798;10.968;2023-12-04T03:38:57;98377.03;;;-6.24;67.24
49973;BME280;71845;49.798;10.968;2023-12-04T03:41:24;98382.09;;;-6.39;67.38
49973;BME280;71845;49.798;10.968;2023-12-04T03:43:51;98393.34;;;-6.31;67.72
49973;BME280;71845;49.798;10.968;2023-12-04T03:46:18;98383.06;;;-6.22;66.67
49973;BME280;71845;49.798;10.968;2023-12-04T03:48:45;98385.63;;;-6.25;66.71
49973;BME280;71845;49.798;10.968;2023-12-04T03:51:16;98373.59;;;-6.26;66.77
49973;BME280;71845;49.798;10.968;2023-12-04T03:53:42;98379.56;;;-6.35;67.38
49973;BME280;71845;49.798;10.968;2023-12-04T03:56:10;98379.50;;;-6.46;67.80
49973;BME280;71845;49.798;10.968;2023-12-04T03:58:37;98357.16;;;-6.41;67.45
49973;BME280;71845;49.798;10.968;2023-12-04T04:01:05;98371.84;;;-6.33;67.81
49973;BME280;71845;49.798;10.968;2023-12-04T04:03:32;98370.97;;;-6.31;67.27
49973;BME280;71845;49.798;10.968;2023-12-04T04:05:59;98357.22;;;-6.31;67.69
49973;BME280;71845;49.798;10.968;2023-12-04T04:08:29;98362.44;;;-6.23;67.87
49973;BME280;71845;49.798;10.968;2023-12-04T04:10:55;98323.69;;;-6.31;67.10
49973;BME280;71845;49.798;10.968;2023-12-04T04:13:23;98340.13;;;-6.12;67.83
49973;BME280;71845;49.798;10.968;2023-12-04T04:15:51;98334.97;;;-6.12;67.48
49973;BME280;71845;49.798;10.968;2023-12-04T04:18:19;98335.88;;;-6.04;67.93
49973;BME280;71845;49.798;10.968;2023-12-04T04:20:46;98333.25;;;-6.10;67.20
49973;BME280;71845;49.798;10.968;2023-12-04T04:23:12;98328.97;;;-6.06;67.47
49973;BME280;71845;49.798;10.968;2023-12-04T04:25:41;98321.19;;;-6.11;67.16
49973;BME280;71845;49.798;10.968;2023-12-04T04:28:07;98323.84;;;-6.02;66.90
49973;BME280;71845;49.798;10.968;2023-12-04T04:30:34;98318.66;;;-6.08;67.74
49973;BME280;71845;49.798;10.968;2023-12-04T04:33:01;98315.28;;;-5.93;67.63
49973;BME280;71845;49.798;10.968;2023-12-04T04:35:31;98311.81;;;-6.00;67.11
49973;BME280;71845;49.798;10.968;2023-12-04T04:37:58;98307.50;;;-6.01;67.13
49973;BME280;71845;49.798;10.968;2023-12-04T04:40:27;98315.22;;;-6.02;67.86
49973;BME280;71845;49.798;10.968;2023-12-04T04:42:55;98311.78;;;-6.03;68.02
49973;BME280;71845;49.798;10.968;2023-12-04T04:45:22;98312.63;;;-6.08;68.15
49973;BME280;71845;49.798;10.968;2023-12-04T04:47:49;98291.09;;;-6.18;67.88
49973;BME280;71845;49.798;10.968;2023-12-04T04:50:15;98303.13;;;-6.20;68.56
49973;BME280;71845;49.798;10.968;2023-12-04T04:52:42;98302.28;;;-6.10;67.77
49973;BME280;71845;49.798;10.968;2023-12-04T04:55:08;98301.47;;;-6.06;68.27
49973;BME280;71845;49.798;10.968;2023-12-04T04:57:35;98295.41;;;-6.09;68.58
49973;BME280;71845;49.798;10.968;2023-12-04T05:00:17;98291.09;;;-6.12;68.39
49973;BME280;71845;49.798;10.968;2023-12-04T05:02:47;98291.13;;;-6.10;68.55
49973;BME280;71845;49.798;10.968;2023-12-04T05:05:22;98286.81;;;-6.12;68.61
49973;BME280;71845;49.798;10.968;2023-12-04T05:07:49;98280.81;;;-6.07;68.09
49973;BME280;71845;49.798;10.968;2023-12-04T05:10:15;98275.63;;;-6.17;68.95
49973;BME280;71845;49.798;10.968;2023-12-04T05:12:44;98276.50;;;-6.12;68.92
49973;BME280;71845;49.798;10.968;2023-12-04T05:15:13;98273.06;;;-6.06;68.49
49973;BME280;71845;49.798;10.968;2023-12-04T05:17:40;98272.22;;;-6.05;68.87
49973;BME280;71845;49.798;10.968;2023-12-04T05:20:07;98268.75;;;-6.08;68.26
49973;BME280;71845;49.798;10.968;2023-12-04T05:22:34;98261.91;;;-6.02;69.08
49973;BME280;71845;49.798;10.968;2023-12-04T05:25:01;98258.44;;;-6.08;69.20
49973;BME280;71845;49.798;10.968;2023-12-04T05:27:27;98251.63;;;-5.88;69.12
49973;BME280;71845;49.798;10.968;2023-12-04T05:29:55;98244.72;;;-5.93;69.09
49973;BME280;71845;49.798;10.968;2023-12-04T05:32:24;98250.75;;;-5.99;69.68
49973;BME280;71845;49.798;10.968;2023-12-04T05:34:52;98235.25;;;-6.01;69.74
49973;BME280;71845;49.798;10.968;2023-12-04T05:37:18;98233.53;;;-5.95;69.39
49973;BME280;71845;49.798;10.968;2023-12-04T05:39:46;98237.84;;;-5.88;69.50
49973;BME280;71845;49.798;10.968;2023-12-04T05:42:15;98238.72;;;-5.80;69.72
49973;BME280;71845;49.798;10.968;2023-12-04T05:44:42;98234.44;;;-5.79;69.33
49973;BME280;71845;49.798;10.968;2023-12-04T05:47:09;98232.72;;;-5.74;69.21
49973;BME280;71845;49.798;10.968;2023-12-04T05:49:38;98236.13;;;-5.80;69.73
49973;BME280;71845;49.798;10.968;2023-12-04T05:52:04;98230.13;;;-5.26;70.68
49973;BME280;71845;49.798;10.968;2023-12-04T05:54:31;98231.84;;;-5.61;69.02
49973;BME280;71845;49.798;10.968;2023-12-04T05:56:57;98232.69;;;-5.60;69.19
49973;BME280;71845;49.798;10.968;2023-12-04T05:59:24;98215.53;;;-5.50;69.06
49973;BME280;71845;49.798;10.968;2023-12-04T06:01:51;98218.06;;;-5.53;69.36
49973;BME280;71845;49.798;10.968;2023-12-04T06:04:17;98213.53;;;-4.19;73.84
49973;BME280;71845;49.798;10.968;2023-12-04T06:06:47;98212.91;;;-5.12;68.51
49973;BME280;71845;49.798;10.968;2023-12-04T06:09:14;98207.75;;;-5.21;68.89
49973;BME280;71845;49.798;10.968;2023-12-04T06:11:42;98209.47;;;-5.12;68.77
49973;BME280;71845;49.798;10.968;2023-12-04T06:14:11;98212.06;;;-5.12;68.86
49973;BME280;71845;49.798;10.968;2023-12-04T06:16:37;98224.09;;;-5.13;68.44
49973;BME280;71845;49.798;10.968;2023-12-04T06:19:04;98204.72;;;-0.87;82.92
49973;BME280;71845;49.798;10.968;2023-12-04T06:21:30;98202.13;;;-3.84;72.44
49973;BME280;71845;49.798;10.968;2023-12-04T06:23:59;98203.31;;;-4.49;69.72
49973;BME280;71845;49.798;10.968;2023-12-04T06:26:27;98199.88;;;-4.62;69.49
49973;BME280;71845;49.798;10.968;2023-12-04T06:28:56;98197.34;;;-4.71;68.69
49973;BME280;71845;49.798;10.968;2023-12-04T06:31:23;98197.34;;;-4.71;68.21
49973;BME280;71845;49.798;10.968;2023-12-04T06:33:51;98202.53;;;-4.74;68.17
49973;BME280;71845;49.798;10.968;2023-12-04T06:36:18;98206.81;;;-4.75;67.90
49973;BME280;71845;49.798;10.968;2023-12-04T06:38:46;98201.66;;;-4.78;68.29
49973;BME280;71845;49.798;10.968;2023-12-04T06:41:16;98198.22;;;-4.85;68.04
49973;BME280;71845;49.798;10.968;2023-12-04T06:43:46;98208.56;;;-4.85;67.76
49973;BME280;71845;49.798;10.968;2023-12-04T06:46:14;98193.06;;;-4.89;67.33
49973;BME280;71845;49.798;10.968;2023-12-04T06:48:43;98187.03;;;-4.84;67.50
49973;BME280;71845;49.798;10.968;2023-12-04T06:51:09;98193.06;;;-4.86;67.34
49973;BME280;71845;49.798;10.968;2023-12-04T06:53:36;98194.78;;;-4.85;67.59
49973;BME280;71845;49.798;10.968;2023-12-04T06:56:04;98195.66;;;-4.83;67.52
49973;BME280;71845;49.798;10.968;2023-12-04T06:58:32;98189.59;;;-4.77;67.43
49973;BME280;71845;49.798;10.968;2023-12-04T07:00:59;98187.91;;;-4.91;67.43
49973;BME280;71845;49.798;10.968;2023-12-04T07:03:26;98184.44;;;-4.88;67.49
49973;BME280;71845;49.798;10.968;2023-12-04T07:05:53;98190.50;;;-4.88;67.62
49973;BME280;71845;49.798;10.968;2023-12-04T07:08:21;98187.06;;;-5.04;68.12
49973;BME280;71845;49.798;10.968;2023-12-04T07:10:49;98185.31;;;-4.97;68.48
49973;BME280;71845;49.798;10.968;2023-12-04T07:13:16;98181.00;;;-4.93;68.48
49973;BME280;71845;49.798;10.968;2023-12-04T07:15:44;98181.88;;;-4.87;67.98
49973;BME280;71845;49.798;10.968;2023-12-04T07:18:10;98193.94;;;-4.98;68.27
49973;BME280;71845;49.798;10.968;2023-12-04T07:20:37;98190.50;;;-4.91;68.34
49973;BME280;71845;49.798;10.968;2023-12-04T07:23:04;98186.19;;;-4.89;67.85
49973;BME280;71845;49.798;10.968;2023-12-04T07:25:31;98196.53;;;-4.84;68.28
49973;BME280;71845;49.798;10.968;2023-12-04T07:27:57;98197.34;;;-4.80;67.68
49973;BME280;71845;49.798;10.968;2023-12-04T07:30:24;98191.28;;;-4.72;67.96
49973;BME280;71845;49.798;10.968;2023-12-04T07:32:53;98189.59;;;-4.74;68.00
49973;BME280;71845;49.798;10.968;2023-12-04T07:35:20;98187.88;;;-4.75;67.64
49973;BME280;71845;49.798;10.968;2023-12-04T07:37:47;98179.28;;;-4.82;68.98
49973;BME280;71845;49.798;10.968;2023-12-04T07:40:18;98172.38;;;-4.81;68.70
49973;BME280;71845;49.798;10.968;2023-12-04T07:42:48;98160.28;;;-4.79;68.36
49973;BME280;71845;49.798;10.968;2023-12-04T07:45:15;98157.69;;;-4.75;68.91
49973;BME280;71845;49.798;10.968;2023-12-04T07:47:42;98164.56;;;-4.66;68.28
49973;BME280;71845;49.798;10.968;2023-12-04T07:50:12;98162.84;;;-4.69;68.98
49973;BME280;71845;49.798;10.968;2023-12-04T07:52:39;98158.50;;;-4.60;68.47
49973;BME280;71845;49.798;10.968;2023-12-04T07:55:08;98165.44;;;-4.67;68.37
49973;BME280;71845;49.798;10.968;2023-12-04T07:57:35;98172.34;;;-4.74;68.83
49973;BME280;71845;49.798;10.968;2023-12-04T08:00:03;98176.59;;;-4.62;69.35
49973;BME280;71845;49.798;10.968;2023-12-04T08:02:31;98168.03;;;-4.70;69.61
49973;BME280;71845;49.798;10.968;2023-12-04T08:04:59;98169.75;;;-4.69;69.22
49973;BME280;71845;49.798;10.968;2023-12-04T08:07:28;98174.03;;;-4.56;68.30
49973;BME280;71845;49.798;10.968;2023-12-04T08:09:55;98166.31;;;-4.71;68.91
49973;BME280;71845;49.798;10.968;2023-12-04T08:12:23;98168.03;;;-4.72;69.44
49973;BME280;71845;49.798;10.968;2023-12-04T08:14:49;98172.31;;;-4.63;68.63
49973;BME280;71845;49.798;10.968;2023-12-04T08:17:18;98174.03;;;-4.56;68.56
49973;BME280;71845;49.798;10.968;2023-12-04T08:19:45;98170.59;;;-4.67;68.50
49973;BME280;71845;49.798;10.968;2023-12-04T08:22:12;98174.88;;;-4.53;68.60
49973;BME280;71845;49.798;10.968;2023-12-04T08:24:42;98170.53;;;-4.47;68.12
49973;BME280;71845;49.798;10.968;2023-12-04T08:27:09;98162.75;;;-4.39;67.93
49973;BME280;71845;49.798;10.968;2023-12-04T08:29:40;98154.09;;;-4.38;67.96
49973;BME280;71845;49.798;10.968;2023-12-04T08:32:11;98160.09;;;-4.30;67.89
49973;BME280;71845;49.798;10.968;2023-12-04T08:34:40;98152.34;;;-4.33;67.79
49973;BME280;71845;49.798;10.968;2023-12-04T08:37:08;98148.97;;;-4.46;68.01
49973;BME280;71845;49.798;10.968;2023-12-04T08:39:37;98146.31;;;-4.30;68.11
49973;BME280;71845;49.798;10.968;2023-12-04T08:42:06;98148.00;;;-4.21;67.56
49973;BME280;71845;49.798;10.968;2023-12-04T08:44:34;98135.91;;;-4.19;67.87
49973;BME280;71845;49.798;10.968;2023-12-04T08:47:03;98138.44;;;-4.13;67.92
49973;BME280;71845;49.798;10.968;2023-12-04T08:49:30;98138.41;;;-4.08;67.32
49973;BME280;71845;49.798;10.968;2023-12-04T08:51:57;98134.00;;;-3.94;66.72
49973;BME280;71845;49.798;10.968;2023-12-04T08:54:24;98135.72;;;-3.94;66.96
49973;BME280;71845;49.798;10.968;2023-12-04T08:56:51;98127.09;;;-3.93;66.77
49973;BME280;71845;49.798;10.968;2023-12-04T08:59:20;98121.84;;;-3.86;67.41
49973;BME280;71845;49.798;10.968;2023-12-04T09:01:47;98114.16;;;-3.96;67.44
49973;BME280;71845;49.798;10.968;2023-12-04T09:04:14;98117.50;;;-3.76;66.41
49973;BME280;71845;49.798;10.968;2023-12-04T09:06:42;98108.00;;;-3.80;66.65
49973;BME280;71845;49.798;10.968;2023-12-04T09:09:08;98113.91;;;-3.59;66.82
49973;BME280;71845;49.798;10.968;2023-12-04T09:11:35;98122.53;;;-3.57;66.46
49973;BME280;71845;49.798;10.968;2023-12-04T09:14:02;98112.13;;;-3.56;66.65
49973;BME280;71845;49.798;10.968;2023-12-04T09:16:32;98113.03;;;-3.60;66.67
49973;BME280;71845;49.798;10.968;2023-12-04T09:18:58;98095.72;;;-3.55;66.94
49973;BME280;71845;49.798;10.968;2023-12-04T09:21:27;98113.78;;;-3.47;66.95
49973;BME280;71845;49.798;10.968;2023-12-04T09:23:54;98112.06;;;-3.46;66.48
49973;BME280;71845;49.798;10.968;2023-12-04T09:26:24;98111.16;;;-3.44;66.40
49973;BME280;71845;49.798;10.968;2023-12-04T09:28:50;98111.00;;;-3.25;66.19
49973;BME280;71845;49.798;10.968;2023-12-04T09:31:18;98104.06;;;-3.23;66.91
49973;BME280;71845;49.798;10.968;2023-12-04T09:33:46;98112.72;;;-3.24;66.35
49973;BME280;71845;49.798;10.968;2023-12-04T09:36:13;98104.97;;;-3.30;66.76
49973;BME280;71845;49.798;10.968;2023-12-04T09:38:40;98105.78;;;-3.23;66.75
49973;BME280;71845;49.798;10.968;2023-12-04T09:41:08;98102.19;;;-3.10;65.79
49973;BME280;71845;49.798;10.968;2023-12-04T09:43:37;98095.22;;;-3.03;65.42
49973;BME280;71845;49.798;10.968;2023-12-04T09:46:04;98094.34;;;-3.01;65.51
49973;BME280;71845;49.798;10.968;2023-12-04T09:48:31;98094.16;;;-2.87;64.15
49973;BME280;71845;49.798;10.968;2023-12-04T09:50:59;98095.06;;;-2.89;63.44
49973;BME280;71845;49.798;10.968;2023-12-04T09:53:26;98092.47;;;-2.88;64.01
49973;BME280;71845;49.798;10.968;2023-12-04T09:55:55;98083.56;;;-2.68;63.09
49973;BME280;71845;49.798;10.968;2023-12-04T09:58:25;98079.22;;;-2.66;63.50
49973;BME280;71845;49.798;10.968;2023-12-04T10:00:55;98086.91;;;-2.58;63.27
49973;BME280;71845;49.798;10.968;2023-12-04T10:03:24;98079.06;;;-2.53;63.10
49973;BME280;71845;49.798;10.968;2023-12-04T10:05:50;98083.38;;;-2.51;63.09
49973;BME280;71845;49.798;10.968;2023-12-04T10:08:20;98070.38;;;-2.51;63.17
49973;BME280;71845;49.798;10.968;2023-12-04T10:10:47;98071.06;;;-2.38;62.70
49973;BME280;71845;49.798;10.968;2023-12-04T10:13:14;98059.03;;;-2.45;62.70
49973;BME280;71845;49.798;10.968;2023-12-04T10:15:46;98060.75;;;-2.43;62.85
49973;BME280;71845;49.798;10.968;2023-12-04T10:18:24;98047.91;;;-2.53;62.36
49973;BME280;71845;49.798;10.968;2023-12-04T10:20:52;98049.53;;;-2.46;62.73
49973;BME280;71845;49.798;10.968;2023-12-04T10:23:20;98047.72;;;-2.39;62.07
49973;BME280;71845;49.798;10.968;2023-12-04T10:25:48;98045.22;;;-2.46;62.78
49973;BME280;71845;49.798;10.968;2023-12-04T10:28:16;98037.38;;;-2.41;62.49
49973;BME280;71845;49.798;10.968;2023-12-04T10:30:43;98023.41;;;-2.32;62.49
49973;BME280;71845;49.798;10.968;2023-12-04T10:33:12;98027.66;;;-2.27;62.18
49973;BME280;71845;49.798;10.968;2023-12-04T10:35:39;98012.09;;;-2.28;62.60
49973;BME280;71845;49.798;10.968;2023-12-04T10:38:08;97999.75;;;-2.15;62.83
49973;BME280;71845;49.798;10.968;2023-12-04T10:40:40;97996.09;;;-2.03;63.04
49973;BME280;71845;49.798;10.968;2023-12-04T10:43:11;97977.13;;;-2.07;62.88
49973;BME280;71845;49.798;10.968;2023-12-04T10:45:43;97960.28;;;-1.84;63.24
49973;BME280;71845;49.798;10.968;2023-12-04T10:48:11;97961.16;;;-1.85;63.35
49973;BME280;71845;49.798;10.968;2023-12-04T10:50:39;97942.78;;;-1.73;63.54
49973;BME280;71845;49.798;10.968;2023-12-04T10:53:07;97943.53;;;-1.67;63.81
49973;BME280;71845;49.798;10.968;2023-12-04T10:55:37;97943.72;;;-1.77;63.48
49973;BME280;71845;49.798;10.968;2023-12-04T10:58:07;97927.06;;;-1.66;63.01
49973;BME280;71845;49.798;10.968;2023-12-04T11:00:35;97925.22;;;-1.61;63.55
49973;BME280;71845;49.798;10.968;2023-12-04T11:03:07;97930.47;;;-1.63;64.01
49973;BME280;71845;49.798;10.968;2023-12-04T11:05:53;97921.69;;;-1.59;63.72
49973;BME280;71845;49.798;10.968;2023-12-04T11:08:22;97926.00;;;-1.58;62.89
49973;BME280;71845;49.798;10.968;2023-12-04T11:10:53;97921.56;;;-1.51;62.88
49973;BME280;71845;49.798;10.968;2023-12-04T11:13:27;97922.31;;;-1.46;61.56
49973;BME280;71845;49.798;10.968;2023-12-04T11:15:57;97920.72;;;-1.51;61.21
49973;BME280;71845;49.798;10.968;2023-12-04T11:18:27;97904.84;;;-1.39;61.70
49973;BME280;71845;49.798;10.968;2023-12-04T11:20:59;97897.25;;;-1.48;60.90
49973;BME280;71845;49.798;10.968;2023-12-04T11:23:26;97907.59;;;-1.45;61.15
49973;BME280;71845;49.798;10.968;2023-12-04T11:25:56;97899.72;;;-1.42;60.61
49973;BME280;71845;49.798;10.968;2023-12-04T11:28:24;97882.56;;;-1.51;61.02
49973;BME280;71845;49.798;10.968;2023-12-04T11:30:53;97877.22;;;-1.45;61.08
49973;BME280;71845;49.798;10.968;2023-12-04T11:33:19;97867.94;;;-1.55;59.82
49973;BME280;71845;49.798;10.968;2023-12-04T11:35:46;97866.16;;;-1.53;61.29
49973;BME280;71845;49.798;10.968;2023-12-04T11:38:13;97861.75;;;-1.49;60.60
49973;BME280;71845;49.798;10.968;2023-12-04T11:40:41;97845.19;;;-1.44;61.26
49973;BME280;71845;49.798;10.968;2023-12-04T11:43:28;97841.72;;;-1.46;60.37
49973;BME280;71845;49.798;10.968;2023-12-04T11:46:07;97836.91;;;-1.63;60.71
49973;BME280;71845;49.798;10.968;2023-12-04T11:48:34;97840.47;;;-1.68;60.90
49973;BME280;71845;49.798;10.968;2023-12-04T11:51:00;97839.34;;;-1.55;60.92
49973;BME280;71845;49.798;10.968;2023-12-04T11:53:27;97827.41;;;-1.65;59.87
49973;BME280;71845;49.798;10.968;2023-12-04T11:55:56;97830.97;;;-1.70;59.86
49973;BME280;71845;49.798;10.968;2023-12-04T11:58:27;97829.84;;;-1.58;61.22
49973;BME280;71845;49.798;10.968;2023-12-04T12:00:54;97836.09;;;-1.65;60.62
49973;BME280;71845;49.798;10.968;2023-12-04T12:03:22;97835.31;;;-1.70;60.69
49973;BME280;71845;49.798;10.968;2023-12-04T12:05:49;97829.09;;;-1.63;60.85
49973;BME280;71845;49.798;10.968;2023-12-04T12:08:18;97832.28;;;-1.48;60.64
49973;BME280;71845;49.798;10.968;2023-12-04T12:10:46;97835.72;;;-1.48;60.99
49973;BME280;71845;49.798;10.968;2023-12-04T12:13:13;97841.13;;;-1.59;59.84
49973;BME280;71845;49.798;10.968;2023-12-04T12:15:42;97836.66;;;-1.52;60.46
49973;BME280;71845;49.798;10.968;2023-12-04T12:18:15;97858.13;;;-1.42;60.56
49973;BME280;71845;49.798;10.968;2023-12-04T12:20:43;97869.19;;;-1.32;60.09
49973;BME280;71845;49.798;10.968;2023-12-04T12:23:11;97875.91;;;-1.22;60.05
49973;BME280;71845;49.798;10.968;2023-12-04T12:25:39;97863.47;;;-0.00;67.59
49973;BME280;71845;49.798;10.968;2023-12-04T12:28:09;97853.81;;;-1.04;59.07
49973;BME280;71845;49.798;10.968;2023-12-04T12:30:37;97849.19;;;-1.30;59.57
49973;BME280;71845;49.798;10.968;2023-12-04T12:33:05;97841.78;;;-1.08;59.36
49973;BME280;71845;49.798;10.968;2023-12-04T12:35:33;97840.47;;;-1.26;59.03
49973;BME280;71845;49.798;10.968;2023-12-04T12:38:00;97839.66;;;-1.30;59.01
49973;BME280;71845;49.798;10.968;2023-12-04T12:40:28;97843.97;;;-1.27;58.59
49973;BME280;71845;49.798;10.968;2023-12-04T12:43:03;97830.19;;;6.11;59.40
49973;BME280;71845;49.798;10.968;2023-12-04T12:45:38;97837.03;;;0.74;55.75
49973;BME280;71845;49.798;10.968;2023-12-04T12:48:10;97825.41;;;-0.07;56.45
49973;BME280;71845;49.798;10.968;2023-12-04T12:50:37;97819.13;;;-0.32;57.35
49973;BME280;71845;49.798;10.968;2023-12-04T12:53:04;97821.91;;;-0.39;58.04
49973;BME280;71845;49.798;10.968;2023-12-04T12:55:31;97823.69;;;-0.40;58.72